createdAt,value
2023-03-26T00:02:41.918Z,8.24
2023-03-26T00:05:32.145Z,8.14
2023-03-26T00:08:22.397Z,8.06
2023-03-26T00:11:15.517Z,8.01
2023-03-26T00:14:05.640Z,8.02
2023-03-26T00:16:54.715Z,8.01
2023-03-26T00:19:43.997Z,8.01
2023-03-26T00:22:32.970Z,8.06
2023-03-26T00:25:23.980Z,8.10
2023-03-26T00:28:13.443Z,8.21
2023-03-26T00:31:06.662Z,8.30
2023-03-26T00:33:56.812Z,8.31
2023-03-26T00:36:47.126Z,8.31
2023-03-26T00:39:37.407Z,8.40
2023-03-26T00:42:27.902Z,8.42
2023-03-26T00:45:17.207Z,8.28
2023-03-26T00:48:06.733Z,8.22
2023-03-26T00:50:55.523Z,8.18
2023-03-26T00:53:47.403Z,8.23
2023-03-26T00:56:37.015Z,8.32
2023-03-26T00:59:30.450Z,8.37
2023-03-26T01:02:22.057Z,8.25
2023-03-26T01:05:46.644Z,8.48
2023-03-26T01:08:39.633Z,8.57
2023-03-26T01:11:32.855Z,8.70
2023-03-26T01:14:28.954Z,8.77
2023-03-26T01:17:19.668Z,8.88
2023-03-26T01:20:17.168Z,8.82
2023-03-26T01:23:08.442Z,8.82
2023-03-26T01:26:21.249Z,8.83
2023-03-26T01:29:21.761Z,8.94
2023-03-26T01:32:25.738Z,8.90
2023-03-26T01:35:32.155Z,8.92
2023-03-26T01:38:35.494Z,8.87
2023-03-26T01:41:36.010Z,8.93
2023-03-26T01:44:35.464Z,8.86
2023-03-26T01:47:25.012Z,8.81
2023-03-26T01:50:14.484Z,8.79
2023-03-26T01:53:05.625Z,8.74
2023-03-26T01:56:12.803Z,8.68
2023-03-26T01:59:25.150Z,8.61
2023-03-26T02:02:18.200Z,8.51
2023-03-26T02:05:18.487Z,8.56
2023-03-26T02:08:20.492Z,8.53
2023-03-26T02:11:14.317Z,8.56
2023-03-26T02:14:07.634Z,8.64
2023-03-26T02:16:57.150Z,8.64
2023-03-26T02:19:48.042Z,8.81
2023-03-26T02:22:41.082Z,8.84
2023-03-26T02:25:32.059Z,8.80
2023-03-26T02:28:21.457Z,8.78
2023-03-26T02:31:13.911Z,8.85
2023-03-26T02:34:03.013Z,8.83
2023-03-26T02:36:54.666Z,8.87
2023-03-26T02:39:43.870Z,8.82
2023-03-26T02:42:42.482Z,8.84
2023-03-26T02:45:31.559Z,8.85
2023-03-26T02:48:27.909Z,8.83
2023-03-26T02:51:34.961Z,8.84
2023-03-26T02:54:26.876Z,8.94
2023-03-26T02:57:28.812Z,8.82
2023-03-26T03:00:23.840Z,8.94
2023-03-26T03:03:34.579Z,8.93
2023-03-26T03:06:26.470Z,8.92
2023-03-26T03:09:19.898Z,8.78
2023-03-26T03:12:27.296Z,8.64
2023-03-26T03:15:16.085Z,8.67
2023-03-26T03:18:05.206Z,8.55
2023-03-26T03:20:56.548Z,8.48
2023-03-26T03:23:45.863Z,8.40
2023-03-26T03:26:36.552Z,8.18
2023-03-26T03:29:45.678Z,7.96
2023-03-26T03:33:13.094Z,7.81
2023-03-26T03:36:10.245Z,7.81
2023-03-26T03:39:09.572Z,7.79
2023-03-26T03:41:59.192Z,7.78
2023-03-26T03:44:48.067Z,7.90
2023-03-26T03:47:57.661Z,8.03
2023-03-26T03:50:54.860Z,8.09
2023-03-26T03:53:49.396Z,8.20
2023-03-26T03:56:49.134Z,8.30
2023-03-26T03:59:58.181Z,8.41
2023-03-26T04:02:49.181Z,8.42
2023-03-26T04:05:38.717Z,8.34
2023-03-26T04:08:27.579Z,8.34
2023-03-26T04:11:19.374Z,8.24
2023-03-26T04:14:34.116Z,8.12
2023-03-26T04:17:42.750Z,7.91
2023-03-26T04:20:33.962Z,7.76
2023-03-26T04:23:24.475Z,7.48
2023-03-26T04:26:20.862Z,7.36
2023-03-26T04:29:32.849Z,7.24
2023-03-26T04:32:26.597Z,7.03
2023-03-26T04:35:19.489Z,7.00
2023-03-26T04:38:16.805Z,6.91
2023-03-26T04:41:08.687Z,6.78
2023-03-26T04:44:06.990Z,6.61
2023-03-26T04:46:55.781Z,6.39
2023-03-26T04:49:52.397Z,6.28
2023-03-26T04:52:44.568Z,6.21
2023-03-26T04:56:10.410Z,6.27
2023-03-26T04:59:29.949Z,6.31
2023-03-26T05:02:20.223Z,6.29
2023-03-26T05:05:15.149Z,6.41
2023-03-26T05:08:04.215Z,6.46
2023-03-26T05:10:53.315Z,6.63
2023-03-26T05:13:49.998Z,6.68
2023-03-26T05:16:41.541Z,6.81
2023-03-26T05:19:31.253Z,6.90
2023-03-26T05:22:20.400Z,7.08
2023-03-26T05:25:31.501Z,7.10
2023-03-26T05:28:24.646Z,7.20
2023-03-26T05:31:35.998Z,7.24
2023-03-26T05:34:27.180Z,7.31
2023-03-26T05:37:17.278Z,7.41
2023-03-26T05:40:17.166Z,7.63
2023-03-26T05:43:26.782Z,7.74
2023-03-26T05:46:24.150Z,7.88
2023-03-26T05:49:13.275Z,7.98
2023-03-26T05:52:03.921Z,8.18
2023-03-26T05:55:09.817Z,8.27
2023-03-26T05:58:36.433Z,8.51
2023-03-26T06:01:54.454Z,8.67
2023-03-26T06:04:46.273Z,8.72
2023-03-26T06:07:56.957Z,8.77
2023-03-26T06:10:52.669Z,8.85
2023-03-26T06:13:42.363Z,8.92
2023-03-26T06:16:31.522Z,8.96
2023-03-26T06:19:40.524Z,9.14
2023-03-26T06:22:39.768Z,9.31
2023-03-26T06:25:57.369Z,9.50
2023-03-26T06:29:04.671Z,9.93
2023-03-26T06:32:19.816Z,9.96
2023-03-26T06:35:29.390Z,10.12
2023-03-26T06:38:18.804Z,9.94
2023-03-26T06:41:09.515Z,10.24
2023-03-26T06:44:01.543Z,10.45
2023-03-26T06:47:28.890Z,10.50
2023-03-26T06:50:40.576Z,10.44
2023-03-26T06:53:47.935Z,10.31
2023-03-26T06:56:58.969Z,10.19
2023-03-26T07:00:08.630Z,10.13
2023-03-26T07:03:17.346Z,9.98
2023-03-26T07:06:26.611Z,9.94
2023-03-26T07:09:34.019Z,9.98
2023-03-26T07:12:43.422Z,9.96
2023-03-26T07:15:50.932Z,10.01
2023-03-26T07:18:58.384Z,10.22
2023-03-26T07:21:53.865Z,10.36
2023-03-26T07:25:08.037Z,10.58
2023-03-26T07:28:20.478Z,10.81
2023-03-26T07:31:34.909Z,10.95
2023-03-26T07:34:54.336Z,11.08
2023-03-26T07:38:38.587Z,11.14
2023-03-26T07:42:00.458Z,10.83
2023-03-26T07:45:27.250Z,10.89
2023-03-26T07:48:47.763Z,10.84
2023-03-26T07:51:43.946Z,11.02
2023-03-26T07:54:51.998Z,11.14
2023-03-26T07:58:20.816Z,11.08
2023-03-26T08:02:15.028Z,11.07
2023-03-26T08:05:26.229Z,11.12
2023-03-26T08:08:49.473Z,11.05
2023-03-26T08:12:07.475Z,11.19
2023-03-26T08:15:08.889Z,11.27
2023-03-26T08:18:14.654Z,11.29
2023-03-26T08:21:11.144Z,10.74
2023-03-26T08:24:09.523Z,10.88
2023-03-26T08:27:13.484Z,11.34
2023-03-26T08:30:12.039Z,11.48
2023-03-26T08:33:16.745Z,11.65
2023-03-26T08:36:06.798Z,11.58
2023-03-26T08:38:57.577Z,11.86
2023-03-26T08:42:34.446Z,11.82
2023-03-26T08:46:01.067Z,11.82
2023-03-26T08:49:38.662Z,11.84
2023-03-26T08:53:05.723Z,11.60
2023-03-26T08:56:09.824Z,11.65
2023-03-26T09:00:05.968Z,11.43
2023-03-26T09:03:41.362Z,11.29
2023-03-26T09:07:27.151Z,11.19
2023-03-26T09:11:04.890Z,11.27
2023-03-26T09:14:30.429Z,11.38
2023-03-26T09:18:05.586Z,11.42
2023-03-26T09:21:44.244Z,11.63
2023-03-26T09:25:25.794Z,11.74
2023-03-26T09:28:51.649Z,11.94
2023-03-26T09:32:48.225Z,12.04
2023-03-26T09:36:00.805Z,12.23
2023-03-26T09:38:58.426Z,12.31
2023-03-26T09:42:09.204Z,12.41
2023-03-26T09:45:33.092Z,12.32
2023-03-26T09:49:09.196Z,12.11
2023-03-26T09:52:17.388Z,11.99
2023-03-26T09:55:57.866Z,11.32
2023-03-26T09:59:17.809Z,11.59
2023-03-26T10:02:45.958Z,11.55
2023-03-26T10:06:11.871Z,11.47
2023-03-26T10:09:37.940Z,11.38
2023-03-26T10:12:38.307Z,11.60
2023-03-26T10:15:53.355Z,11.75
2023-03-26T10:19:09.886Z,12.01
2023-03-26T10:22:20.422Z,11.84
2023-03-26T10:25:43.350Z,11.70
2023-03-26T10:29:05.719Z,11.93
2023-03-26T10:32:10.936Z,11.80
2023-03-26T10:35:18.595Z,11.88
2023-03-26T10:38:19.788Z,11.68
2023-03-26T10:41:18.254Z,11.86
2023-03-26T10:44:34.424Z,11.97
2023-03-26T10:47:52.722Z,12.11
2023-03-26T10:50:58.762Z,12.12
2023-03-26T10:53:52.082Z,11.89
2023-03-26T10:56:49.360Z,11.56
2023-03-26T10:59:40.170Z,11.24
2023-03-26T11:02:38.046Z,10.63
2023-03-26T11:05:50.340Z,10.35
2023-03-26T11:08:49.558Z,10.25
2023-03-26T11:11:46.190Z,10.15
2023-03-26T11:14:48.707Z,10.41
2023-03-26T11:17:53.041Z,10.51
2023-03-26T11:20:50.638Z,10.68
2023-03-26T11:23:46.540Z,11.04
2023-03-26T11:26:52.975Z,11.19
2023-03-26T11:29:58.132Z,11.30
2023-03-26T11:32:53.915Z,11.44
2023-03-26T11:35:49.335Z,11.39
2023-03-26T11:38:43.629Z,11.33
2023-03-26T11:41:35.624Z,11.17
2023-03-26T11:44:51.449Z,11.01
2023-03-26T11:47:49.363Z,10.87
2023-03-26T11:50:46.579Z,10.79
2023-03-26T11:53:39.772Z,10.39
2023-03-26T11:56:34.727Z,10.39
2023-03-26T11:59:33.802Z,10.31
2023-03-26T12:02:34.510Z,10.53
2023-03-26T12:05:27.492Z,10.65
2023-03-26T12:08:28.025Z,10.96
2023-03-26T12:11:22.040Z,11.09
2023-03-26T12:14:20.481Z,11.56
2023-03-26T12:17:14.913Z,12.03
2023-03-26T12:20:38.876Z,12.29
2023-03-26T12:23:42.637Z,12.49
2023-03-26T12:26:45.706Z,12.63
2023-03-26T12:29:35.180Z,12.54
2023-03-26T12:32:32.572Z,12.33
2023-03-26T12:35:36.983Z,12.04
2023-03-26T12:38:33.188Z,11.96
2023-03-26T12:43:40.557Z,12.16
2023-03-26T12:44:59.161Z,12.47
2023-03-26T12:48:00.069Z,12.52
2023-03-26T12:51:11.890Z,12.73
2023-03-26T12:54:35.297Z,12.74
2023-03-26T12:57:32.691Z,12.80
2023-03-26T13:00:41.898Z,12.92
2023-03-26T13:03:48.042Z,13.42
2023-03-26T13:07:01.098Z,13.49
2023-03-26T13:10:28.017Z,13.44
2023-03-26T13:13:45.670Z,13.56
2023-03-26T13:16:46.748Z,13.64
2023-03-26T13:19:48.805Z,13.56
2023-03-26T13:22:52.866Z,13.72
2023-03-26T13:25:52.926Z,13.88
2023-03-26T13:28:53.296Z,14.05
2023-03-26T13:31:55.972Z,14.34
2023-03-26T13:35:04.260Z,14.90
2023-03-26T13:38:04.395Z,15.24
2023-03-26T13:41:05.466Z,15.22
2023-03-26T13:44:14.241Z,15.45
2023-03-26T13:47:10.122Z,15.51
2023-03-26T13:50:07.454Z,15.36
2023-03-26T13:53:07.134Z,15.62
2023-03-26T13:56:00.394Z,15.44
2023-03-26T13:58:58.725Z,15.01
2023-03-26T14:01:53.988Z,14.91
2023-03-26T14:04:48.779Z,15.04
2023-03-26T14:07:47.701Z,15.30
2023-03-26T14:10:47.056Z,15.11
2023-03-26T14:13:44.524Z,14.57
2023-03-26T14:16:41.304Z,13.94
2023-03-26T14:20:09.963Z,12.75
2023-03-26T14:23:53.912Z,12.83
2023-03-26T14:27:15.585Z,13.39
2023-03-26T14:30:59.196Z,13.13
2023-03-26T14:34:13.627Z,12.98
2023-03-26T14:37:43.923Z,12.94
2023-03-26T14:40:58.058Z,12.96
2023-03-26T14:44:47.988Z,12.67
2023-03-26T14:47:48.877Z,12.62
2023-03-26T14:51:01.404Z,11.94
2023-03-26T14:53:54.719Z,11.39
2023-03-26T14:57:00.395Z,11.25
2023-03-26T15:00:39.525Z,11.47
2023-03-26T15:04:38.460Z,11.82
2023-03-26T15:08:00.927Z,12.07
2023-03-26T15:11:21.567Z,12.63
2023-03-26T15:14:44.218Z,12.79
2023-03-26T15:18:06.246Z,12.76
2023-03-26T15:21:57.913Z,12.82
2023-03-26T15:26:02.628Z,12.81
2023-03-26T15:29:28.127Z,12.67
2023-03-26T15:33:07.270Z,12.31
2023-03-26T15:36:58.847Z,12.23
2023-03-26T15:40:54.876Z,12.10
2023-03-26T15:44:23.892Z,11.98
2023-03-26T15:47:44.452Z,11.89
2023-03-26T15:50:55.806Z,11.69
2023-03-26T15:53:58.626Z,11.39
2023-03-26T15:57:17.615Z,11.20
2023-03-26T16:00:23.513Z,10.96
2023-03-26T16:03:35.886Z,11.30
2023-03-26T16:06:41.433Z,11.76
2023-03-26T16:10:00.804Z,11.60
2023-03-26T16:13:23.410Z,11.65
2023-03-26T16:16:24.559Z,11.53
2023-03-26T16:19:49.476Z,11.53
2023-03-26T16:22:57.293Z,11.52
2023-03-26T16:26:12.359Z,11.38
2023-03-26T16:29:18.392Z,11.40
2023-03-26T16:32:17.867Z,11.52
2023-03-26T16:35:40.050Z,11.51
2023-03-26T16:38:54.819Z,11.55
2023-03-26T16:42:36.960Z,11.46
2023-03-26T16:45:37.170Z,11.32
2023-03-26T16:48:36.516Z,11.10
2023-03-26T16:51:45.661Z,10.87
2023-03-26T16:54:48.030Z,10.71
2023-03-26T16:57:49.450Z,10.61
2023-03-26T17:01:07.596Z,10.47
2023-03-26T17:04:03.735Z,10.29
2023-03-26T17:07:14.066Z,10.27
2023-03-26T17:10:16.134Z,10.23
2023-03-26T17:13:16.692Z,10.24
2023-03-26T17:16:16.698Z,10.09
2023-03-26T17:19:21.740Z,9.91
2023-03-26T17:22:24.924Z,9.72
2023-03-26T17:25:33.485Z,9.63
2023-03-26T17:28:55.200Z,9.66
2023-03-26T17:31:53.692Z,9.72
2023-03-26T17:35:02.232Z,9.81
2023-03-26T17:37:51.865Z,9.99
2023-03-26T17:41:01.757Z,10.16
2023-03-26T17:43:53.681Z,10.12
2023-03-26T17:46:48.318Z,10.17
2023-03-26T17:49:40.635Z,10.09
2023-03-26T17:52:48.171Z,10.03
2023-03-26T17:55:41.532Z,9.87
2023-03-26T17:58:36.881Z,9.80
2023-03-26T18:01:37.052Z,9.65
2023-03-26T18:04:37.205Z,9.56
2023-03-26T18:08:16.964Z,9.57
2023-03-26T18:11:52.590Z,9.69
2023-03-26T18:15:21.788Z,9.81
2023-03-26T18:18:20.939Z,9.88
2023-03-26T18:21:18.786Z,9.98
2023-03-26T18:24:16.067Z,9.96
2023-03-26T18:27:12.266Z,9.85
2023-03-26T18:30:15.010Z,9.94
2023-03-26T18:33:15.508Z,9.93
2023-03-26T18:36:16.135Z,9.98
2023-03-26T18:39:05.855Z,9.97
2023-03-26T18:41:55.340Z,9.83
2023-03-26T18:44:44.516Z,9.76
2023-03-26T18:47:33.709Z,9.67
2023-03-26T18:50:29.651Z,9.53
2023-03-26T18:53:23.422Z,9.59
2023-03-26T18:56:30.032Z,9.49
2023-03-26T18:59:28.258Z,9.48
2023-03-26T19:02:18.374Z,9.52
2023-03-26T19:05:13.867Z,9.49
2023-03-26T19:08:07.659Z,9.48
2023-03-26T19:10:57.508Z,9.35
2023-03-26T19:14:03.262Z,9.27
2023-03-26T19:16:58.754Z,9.35
2023-03-26T19:19:47.900Z,9.34
2023-03-26T19:22:41.383Z,9.20
2023-03-26T19:25:39.551Z,9.23
2023-03-26T19:28:33.400Z,9.15
2023-03-26T19:31:27.180Z,9.13
2023-03-26T19:34:27.342Z,9.08
2023-03-26T19:37:23.773Z,9.18
2023-03-26T19:40:20.851Z,9.22
2023-03-26T19:43:15.446Z,9.11
2023-03-26T19:46:05.986Z,9.06
2023-03-26T19:48:59.028Z,9.13
2023-03-26T19:51:53.253Z,9.09
2023-03-26T19:55:01.302Z,9.03
2023-03-26T19:57:51.677Z,9.01
2023-03-26T20:00:42.216Z,9.14
2023-03-26T20:03:39.050Z,9.10
2023-03-26T20:06:42.261Z,9.13
2023-03-26T20:09:32.502Z,9.02
2023-03-26T20:12:21.841Z,8.93
2023-03-26T20:15:20.114Z,8.80
2023-03-26T20:18:12.227Z,8.72
2023-03-26T20:21:01.364Z,8.64
2023-03-26T20:23:53.508Z,8.70
2023-03-26T20:26:42.573Z,8.72
2023-03-26T20:29:31.592Z,8.57
2023-03-26T20:32:26.447Z,8.59
2023-03-26T20:35:36.042Z,8.51
2023-03-26T20:38:39.232Z,8.44
2023-03-26T20:41:29.038Z,8.54
2023-03-26T20:44:22.481Z,8.55
2023-03-26T20:47:12.750Z,8.52
2023-03-26T20:50:01.954Z,8.37
2023-03-26T20:52:53.344Z,8.40
2023-03-26T20:55:43.965Z,8.33
2023-03-26T20:58:33.237Z,8.39
2023-03-26T21:01:22.754Z,8.36
2023-03-26T21:04:11.996Z,8.32
2023-03-26T21:07:11.096Z,8.26
2023-03-26T21:10:08.101Z,8.19
2023-03-26T21:13:00.692Z,8.18
2023-03-26T21:15:50.616Z,8.25
2023-03-26T21:18:40.543Z,8.19
2023-03-26T21:21:50.658Z,8.20
2023-03-26T21:25:02.202Z,8.11
2023-03-26T21:28:11.201Z,8.11
2023-03-26T21:31:01.181Z,8.11
2023-03-26T21:33:52.386Z,8.22
2023-03-26T21:36:42.056Z,8.27
2023-03-26T21:39:31.629Z,8.40
2023-03-26T21:42:21.354Z,8.23
2023-03-26T21:45:14.252Z,8.22
2023-03-26T21:48:04.292Z,8.08
2023-03-26T21:50:54.364Z,8.12
2023-03-26T21:53:44.378Z,8.19
2023-03-26T21:56:48.548Z,8.20
2023-03-26T21:59:49.286Z,7.99
2023-03-26T22:02:59.615Z,8.06
2023-03-26T22:05:58.580Z,7.90
2023-03-26T22:08:48.180Z,7.91
2023-03-26T22:11:37.284Z,8.05
2023-03-26T22:14:28.092Z,7.96
2023-03-26T22:17:17.053Z,7.89
2023-03-26T22:20:09.972Z,7.91
2023-03-26T22:22:59.782Z,7.92
2023-03-26T22:25:48.668Z,7.97
2023-03-26T22:28:37.539Z,8.06
2023-03-26T22:31:27.035Z,7.94
2023-03-26T22:34:15.890Z,8.06
2023-03-26T22:37:06.455Z,7.97
2023-03-26T22:39:55.422Z,8.16
2023-03-26T22:42:44.291Z,8.28
2023-03-26T22:45:33.270Z,8.21
2023-03-26T22:48:23.449Z,8.24
2023-03-26T22:51:12.931Z,8.27
2023-03-26T22:54:03.450Z,8.18
2023-03-26T22:56:55.359Z,8.21
2023-03-26T22:59:44.782Z,8.26
2023-03-26T23:02:33.731Z,8.25
2023-03-26T23:05:22.749Z,8.25
2023-03-26T23:08:12.629Z,8.29
2023-03-26T23:11:03.757Z,8.12
2023-03-26T23:13:53.229Z,8.27
2023-03-26T23:16:42.366Z,8.32
2023-03-26T23:19:34.031Z,8.35
2023-03-26T23:22:23.003Z,8.30
2023-03-26T23:25:13.040Z,8.12
2023-03-26T23:28:03.593Z,8.02
2023-03-26T23:30:55.110Z,8.06
2023-03-26T23:33:46.845Z,8.10
2023-03-26T23:36:36.399Z,8.05
2023-03-26T23:39:26.667Z,7.98
2023-03-26T23:42:15.504Z,7.92
2023-03-26T23:45:06.646Z,7.77
2023-03-26T23:47:56.204Z,7.79
2023-03-26T23:50:48.225Z,7.78
2023-03-26T23:53:37.397Z,7.83
2023-03-26T23:56:27.673Z,7.96
2023-03-26T23:59:16.967Z,8.02
